Change the Weather History Date:

Wednesday, January 30, 2013

  Actual Average Record
Temperature  
Mean Temperature 58 °F -  
Max Temperature 66 °F 35 °F 66 °F (2013)
Min Temperature 50 °F 20 °F -13 °F (1955)
Degree Days  
Heating Degree Days 7    
Growing Degree Days 8 (Base 50)    
Moisture  
Dew Point 54 °F    
Average Humidity 89    
Maximum Humidity 100    
Minimum Humidity 68    
Precipitation  
Precipitation 0.90 in - - ()
Sea Level Pressure  
Sea Level Pressure 29.52 in    
Wind  
Wind Speed 10 mph (SSW)    
Max Wind Speed 25 mph    
Max Gust Speed 39 mph    
Visibility 10 miles    
Events      
Averages and records for this station are not official NWS values.
T = Trace of Precipitation, MM = Missing Value Source: NWS Daily Summary

Daily Weather History Graph

Daily Weather History Graph

Search for Another Location

Airport or City:

Trip Planner

Search our weather history database for the weather conditions in past years. The results will help you decide how hot, cold, wet, or windy it might be!

Date:

Astronomy

Jan. 30, 2013 Rise Set
Actual Time 7:27 AM EST 5:32 PM EST
Civil Twilight 6:58 AM EST 6:01 PM EST
Nautical Twilight 6:26 AM EST 6:34 PM EST
Astronomical Twilight 5:53 AM EST 7:06 PM EST
Moon 9:30 PM EST (1/30) 8:53 AM EST (1/30)
Length of Visible Light 11h 02m
Length of Day
10h 04m
Waning Gibbous, 88% of the Moon is Illuminated
Jan 30
Waning Gibbous
Feb 3
Last Quarter
Feb 10
New
Feb 17
First Quarter
Feb 25
Full

Hourly Weather History & Observations

Time (EST) Temp. Dew Point Humidity Pressure Visibility Wind Dir Wind Speed Gust Speed Precip Events Conditions
12:15 AM 57.2 °F 51.8 °F 82% 29.82 in 10.0 mi South 9.2 mph - N/A   Unknown
12:35 AM 60.8 °F 51.8 °F 72% 29.82 in 10.0 mi South 10.4 mph - N/A   Unknown
1:15 AM 60.8 °F 51.8 °F 72% 29.79 in 10.0 mi South 10.4 mph 19.6 mph N/A   Unknown
1:35 AM 57.2 °F 51.8 °F 82% 29.78 in 10.0 mi South 6.9 mph - N/A   Unknown
1:55 AM 59.0 °F 51.8 °F 77% 29.77 in 10.0 mi South 9.2 mph - N/A   Unknown
2:15 AM 60.8 °F 51.8 °F 72% 29.75 in 10.0 mi South 6.9 mph - N/A   Unknown
2:35 AM 59.0 °F 51.8 °F 77% 29.75 in 10.0 mi South 8.1 mph - N/A   Unknown
2:55 AM 59.0 °F 51.8 °F 77% 29.73 in 10.0 mi South 9.2 mph - N/A   Unknown
3:15 AM 59.0 °F 51.8 °F 77% 29.73 in 10.0 mi South 8.1 mph - N/A   Unknown
3:35 AM 59.0 °F 51.8 °F 77% 29.71 in 10.0 mi South 8.1 mph - N/A   Unknown
3:55 AM 59.0 °F 51.8 °F 77% 29.71 in 10.0 mi South 8.1 mph - N/A   Unknown
4:15 AM 57.2 °F 51.8 °F 82% 29.69 in 10.0 mi SSE 8.1 mph - N/A   Unknown
4:35 AM 57.2 °F 51.8 °F 82% 29.68 in 10.0 mi South 10.4 mph - N/A   Unknown
4:55 AM 57.2 °F 51.8 °F 82% 29.67 in 10.0 mi South 9.2 mph - N/A   Unknown
5:15 AM 57.2 °F 51.8 °F 82% 29.65 in 10.0 mi South 9.2 mph 16.1 mph N/A   Unknown
5:35 AM 57.2 °F 51.8 °F 82% 29.64 in 10.0 mi SSE 8.1 mph - N/A   Unknown
5:55 AM 59.0 °F 51.8 °F 77% 29.64 in 10.0 mi South 11.5 mph - N/A   Unknown
6:15 AM 59.0 °F 51.8 °F 77% 29.63 in 10.0 mi South 9.2 mph 18.4 mph N/A   Unknown
6:55 AM 59.0 °F 51.8 °F 77% 29.60 in 10.0 mi South 10.4 mph 18.4 mph N/A   Unknown
7:15 AM 59.0 °F 53.6 °F 82% 29.59 in 10.0 mi South 11.5 mph - N/A   Unknown
7:35 AM 57.2 °F 51.8 °F 82% 29.58 in 10.0 mi South 10.4 mph - N/A   Unknown
7:55 AM 60.8 °F 53.6 °F 77% 29.57 in 10.0 mi South 11.5 mph 18.4 mph N/A   Unknown
8:15 AM 60.8 °F 53.6 °F 77% 29.56 in 10.0 mi South 11.5 mph 16.1 mph N/A   Unknown
8:35 AM 62.6 °F 53.6 °F 72% 29.55 in 10.0 mi South 8.1 mph - N/A   Unknown
8:55 AM 62.6 °F 55.4 °F 77% 29.54 in 10.0 mi South 11.5 mph 17.3 mph N/A   Unknown
9:15 AM 62.6 °F 55.4 °F 77% 29.52 in 10.0 mi South 12.7 mph 18.4 mph N/A   Unknown
9:35 AM 62.6 °F 55.4 °F 77% 29.51 in 10.0 mi South 11.5 mph 18.4 mph N/A   Unknown
9:55 AM 62.6 °F 55.4 °F 77% 29.49 in 10.0 mi South 12.7 mph 23.0 mph N/A   Unknown
10:15 AM 66.2 °F 55.4 °F 68% 29.48 in 10.0 mi South 16.1 mph 28.8 mph N/A   Unknown
10:35 AM 66.2 °F 55.4 °F 68% 29.47 in 10.0 mi SSW 24.2 mph 39.1 mph N/A   Unknown
10:55 AM 66.2 °F 57.2 °F 73% 29.45 in 10.0 mi SSW 15.0 mph 28.8 mph N/A   Unknown
11:15 AM 62.6 °F 59.0 °F 88% 29.53 in 5.0 mi West 23.0 mph 36.8 mph 0.01 in   Unknown
11:35 AM 60.8 °F 55.4 °F 82% 29.56 in 10.0 mi WNW 15.0 mph 31.1 mph 0.01 in   Unknown
11:55 AM 60.8 °F 55.4 °F 82% 29.56 in 10.0 mi West 11.5 mph 18.4 mph 0.02 in   Unknown
12:15 PM 59.0 °F 57.2 °F 94% 29.56 in 7.0 mi SW 5.8 mph 9.2 mph N/A   Unknown
12:35 PM 57.2 °F 57.2 °F 100% 29.55 in 10.0 mi SSW 8.1 mph - 0.01 in   Unknown
12:55 PM 57.2 °F 57.2 °F 100% 29.54 in 10.0 mi SW 9.2 mph - 0.01 in   Unknown
1:15 PM 57.2 °F 57.2 °F 100% 29.53 in 10.0 mi SW 10.4 mph - N/A   Unknown
1:35 PM 57.2 °F 57.2 °F 100% 29.55 in 7.0 mi SW 12.7 mph 17.3 mph N/A   Unknown
1:55 PM 57.2 °F 57.2 °F 100% 29.57 in 7.0 mi SW 11.5 mph - 0.03 in   Unknown
2:15 PM 55.4 °F 55.4 °F 100% 29.55 in 7.0 mi SW 13.8 mph 18.4 mph 0.03 in   Unknown
2:35 PM 55.4 °F 55.4 °F 100% 29.55 in 10.0 mi SW 10.4 mph 17.3 mph 0.05 in   Unknown
2:55 PM 55.4 °F 55.4 °F 100% 29.54 in 10.0 mi SW 10.4 mph - 0.06 in   Unknown
3:15 PM 55.4 °F 55.4 °F 100% 29.53 in 10.0 mi SW 6.9 mph - 0.01 in   Unknown
3:35 PM 55.4 °F 55.4 °F 100% 29.51 in 10.0 mi SSW 8.1 mph - 0.02 in   Unknown
3:55 PM 55.4 °F 55.4 °F 100% 29.51 in 10.0 mi SSW 8.1 mph - 0.03 in   Unknown
4:15 PM 53.6 °F 53.6 °F 100% 29.51 in 10.0 mi SSW 3.5 mph - 0.01 in   Unknown
4:35 PM 53.6 °F 53.6 °F 100% 29.50 in 10.0 mi SSW 5.8 mph - 0.03 in   Unknown
4:55 PM 53.6 °F 53.6 °F 100% 29.50 in 10.0 mi SSW 6.9 mph - 0.06 in   Unknown
5:15 PM 53.6 °F 53.6 °F 100% 29.48 in 10.0 mi South 6.9 mph - 0.03 in   Unknown
5:35 PM 53.6 °F 53.6 °F 100% 29.46 in 10.0 mi South 8.1 mph - 0.06 in   Unknown
5:55 PM 53.6 °F 53.6 °F 100% 29.45 in 10.0 mi South 6.9 mph - 0.09 in   Unknown
6:15 PM 53.6 °F 53.6 °F 100% 29.43 in 10.0 mi South 10.4 mph - 0.02 in   Unknown
6:35 PM 53.6 °F 53.6 °F 100% 29.41 in 10.0 mi South 8.1 mph - 0.04 in   Unknown
6:55 PM 53.6 °F 53.6 °F 100% 29.41 in 10.0 mi South 10.4 mph - 0.07 in   Unknown
7:15 PM 53.6 °F 53.6 °F 100% 29.39 in 10.0 mi South 12.7 mph 16.1 mph 0.03 in   Unknown
7:35 PM 53.6 °F 53.6 °F 100% 29.37 in 10.0 mi SSE 10.4 mph 16.1 mph 0.08 in   Unknown
7:55 PM 53.6 °F 53.6 °F 100% 29.34 in 10.0 mi South 11.5 mph 16.1 mph 0.12 in   Unknown
8:15 PM 53.6 °F 53.6 °F 100% 29.32 in 7.0 mi South 10.4 mph 18.4 mph 0.05 in   Unknown
8:35 PM 53.6 °F 53.6 °F 100% 29.30 in 7.0 mi South 11.5 mph - 0.09 in   Unknown
8:55 PM 53.6 °F 53.6 °F 100% 29.30 in 10.0 mi South 6.9 mph - 0.13 in   Unknown
9:15 PM 53.6 °F 53.6 °F 100% 29.28 in 10.0 mi South 12.7 mph 17.3 mph 0.05 in   Unknown
9:35 PM 55.4 °F 55.4 °F 100% 29.26 in 10.0 mi South 10.4 mph 17.3 mph 0.09 in   Unknown
9:55 PM 55.4 °F 55.4 °F 100% 29.24 in 7.0 mi SSW 10.4 mph - 0.11 in   Unknown
10:15 PM 53.6 °F 53.6 °F 100% 29.26 in 7.0 mi West 13.8 mph 25.3 mph 0.04 in   Unknown
10:35 PM 51.8 °F 51.8 °F 100% 29.26 in 4.0 mi SW 11.5 mph 20.7 mph 0.08 in   Unknown
10:55 PM 51.8 °F 51.8 °F 100% 29.23 in 10.0 mi WSW 13.8 mph 20.7 mph 0.10 in   Unknown
11:15 PM 50.0 °F 50.0 °F 100% 29.26 in 10.0 mi WSW 20.7 mph 29.9 mph 0.02 in   Unknown
11:35 PM 50.0 °F 50.0 °F 100% 29.25 in 10.0 mi WSW 13.8 mph 31.1 mph 0.05 in   Unknown
11:55 PM 50.0 °F 50.0 °F 100% 29.27 in 10.0 mi WSW 25.3 mph 32.2 mph 0.07 in   Unknown